Time;durP1;ratioP1;P1;durP2;ratioP2;P2;SDS_P1;SDS_P2;PMS_P1;PMS_P2;Temp;Humidity;BMP_temperature;BMP_pressure;BME280_temperature;BME280_humidity;BME280_pressure;Samples;Min_cycle;Max_cycle;Signal;HPM_P1;HPM_P2
2023/04/15 00:00:51;;;;;;;;;;;20.20;32.30;;;;;;8401512;28;20442;-44
2023/04/15 00:04:51;;;;;;;;;;;20.10;32.30;;;;;;8401208;28;19920;-43
2023/04/15 00:08:52;;;;;;;;;;;20.10;32.30;;;;;;8400775;28;20423;-43
2023/04/15 00:12:52;;;;;;;;;;;20.10;32.30;;;;;;8400625;28;19920;-43
2023/04/15 00:16:55;;;;;;;;;;;20.10;32.30;;;;;;8401125;28;20416;-43
2023/04/15 00:20:55;;;;;;;;;;;20.00;32.30;;;;;;8400121;28;19969;-43
2023/04/15 00:24:55;;;;;;;;;;;20.00;32.40;;;;;;8400630;28;19916;-42
2023/04/15 00:28:56;;;;;;;;;;;20.00;32.30;;;;;;8400369;28;19912;-43
2023/04/15 00:32:57;;;;;;;;;;;20.00;32.30;;;;;;8399945;28;19928;-43
2023/04/15 00:36:58;;;;;;;;;;;20.00;32.30;;;;;;8401003;28;19924;-43
2023/04/15 00:40:59;;;;;;;;;;;20.00;32.30;;;;;;8400224;28;19974;-43
2023/04/15 00:45:00;;;;;;;;;;;19.90;32.20;;;;;;8399369;28;19916;-43
2023/04/15 00:49:01;;;;;;;;;;;20.00;32.30;;;;;;8399998;28;20369;-43
2023/04/15 00:53:01;;;;;;;;;;;20.00;32.30;;;;;;8399587;28;19928;-43
2023/04/15 00:57:04;;;;;;;;;;;19.90;32.20;;;;;;8399237;28;19916;-42
2023/04/15 01:01:04;;;;;;;;;;;19.90;32.20;;;;;;8399379;28;20266;-42
2023/04/15 01:05:05;;;;;;;;;;;19.90;32.30;;;;;;8399235;28;19920;-43
2023/04/15 01:09:05;;;;;;;;;;;19.90;32.40;;;;;;8397695;28;20408;-43
2023/04/15 01:13:06;;;;;;;;;;;19.90;32.30;;;;;;8398974;28;19921;-42
2023/04/15 01:17:06;;;;;;;;;;;19.90;32.30;;;;;;8399016;28;19944;-44
2023/04/15 01:21:07;;;;;;;;;;;19.90;32.30;;;;;;8398186;28;19920;-43
2023/04/15 01:25:12;;;;;;;;;;;19.90;32.30;;;;;;8398698;28;20381;-43
2023/04/15 01:29:12;;;;;;;;;;;19.90;32.30;;;;;;8398566;28;20400;-43
2023/04/15 01:33:12;;;;;;;;;;;19.80;32.20;;;;;;8397947;28;19920;-43
2023/04/15 01:37:13;;;;;;;;;;;19.80;32.20;;;;;;8398664;28;19951;-44
2023/04/15 01:41:13;;;;;;;;;;;19.80;32.20;;;;;;8398022;28;20366;-43
2023/04/15 01:45:14;;;;;;;;;;;19.80;32.80;;;;;;8397622;28;20381;-43
2023/04/15 01:49:14;;;;;;;;;;;19.80;32.40;;;;;;8397682;28;20365;-43
2023/04/15 01:53:15;;;;;;;;;;;19.80;32.40;;;;;;8397882;28;20369;-43
2023/04/15 01:57:16;;;;;;;;;;;19.70;32.40;;;;;;8397072;28;19916;-43
2023/04/15 02:01:18;;;;;;;;;;;19.70;32.30;;;;;;8397248;28;19920;-43
2023/04/15 02:05:18;;;;;;;;;;;19.70;32.30;;;;;;8397390;28;20470;-44
2023/04/15 02:09:19;;;;;;;;;;;19.70;32.30;;;;;;8396892;28;19917;-42
2023/04/15 02:13:19;;;;;;;;;;;19.70;32.30;;;;;;8397538;28;19920;-44
2023/04/15 02:17:20;;;;;;;;;;;19.70;32.30;;;;;;8397147;28;19916;-43
2023/04/15 02:21:21;;;;;;;;;;;19.70;32.30;;;;;;8396437;28;19917;-44
2023/04/15 02:25:21;;;;;;;;;;;19.60;32.30;;;;;;8397153;28;19917;-43
2023/04/15 02:29:22;;;;;;;;;;;19.60;32.30;;;;;;8396946;28;19916;-43
2023/04/15 02:33:23;;;;;;;;;;;19.60;32.40;;;;;;8396517;28;19920;-45
2023/04/15 02:37:26;;;;;;;;;;;19.60;32.30;;;;;;8396798;28;19924;-44
2023/04/15 02:41:28;;;;;;;;;;;19.60;32.30;;;;;;8396487;28;19921;-45
2023/04/15 02:45:29;;;;;;;;;;;19.60;32.30;;;;;;8395990;28;20336;-45
2023/04/15 02:49:29;;;;;;;;;;;19.60;32.30;;;;;;8396614;28;19955;-43
2023/04/15 02:53:30;;;;;;;;;;;19.60;32.30;;;;;;8396557;28;19927;-43
2023/04/15 02:57:30;;;;;;;;;;;19.60;32.40;;;;;;8395900;28;19923;-43
2023/04/15 03:01:31;;;;;;;;;;;19.50;32.30;;;;;;8396108;28;19924;-44
2023/04/15 03:05:31;;;;;;;;;;;19.50;32.30;;;;;;8396323;28;19942;-44
2023/04/15 03:09:32;;;;;;;;;;;19.50;32.30;;;;;;8395658;28;19917;-43
2023/04/15 03:13:32;;;;;;;;;;;19.50;32.30;;;;;;8403091;28;19928;-44
2023/04/15 03:17:33;;;;;;;;;;;19.50;32.30;;;;;;8402714;28;19923;-43
2023/04/15 03:21:33;;;;;;;;;;;19.50;32.40;;;;;;8402182;28;19928;-45
2023/04/15 03:25:36;;;;;;;;;;;19.50;32.40;;;;;;8402496;28;19943;-42
2023/04/15 03:29:36;;;;;;;;;;;19.50;32.40;;;;;;8401814;28;19923;-42
2023/04/15 03:33:37;;;;;;;;;;;19.50;32.40;;;;;;8402633;28;20270;-44
2023/04/15 03:37:37;;;;;;;;;;;19.50;32.40;;;;;;8402012;28;19916;-44
2023/04/15 03:41:37;;;;;;;;;;;19.50;32.30;;;;;;8401545;28;19917;-43
2023/04/15 03:45:38;;;;;;;;;;;19.50;32.30;;;;;;8401582;28;19921;-43
2023/04/15 03:49:38;;;;;;;;;;;19.50;32.30;;;;;;8401709;28;19986;-43
2023/04/15 03:53:39;;;;;;;;;;;19.50;32.40;;;;;;8401299;28;19927;-42
2023/04/15 03:57:40;;;;;;;;;;;19.50;32.40;;;;;;8401269;28;20385;-43
2023/04/15 04:01:40;;;;;;;;;;;19.40;32.30;;;;;;8401406;28;19916;-42
2023/04/15 04:05:41;;;;;;;;;;;19.50;32.40;;;;;;8398696;28;20381;-43
2023/04/15 04:09:41;;;;;;;;;;;19.50;32.50;;;;;;8398507;28;19916;-43
2023/04/15 04:13:42;;;;;;;;;;;19.50;32.40;;;;;;8399167;28;19929;-43
2023/04/15 04:17:42;;;;;;;;;;;19.60;32.40;;;;;;8398500;28;19917;-42
2023/04/15 04:21:43;;;;;;;;;;;19.70;32.40;;;;;;8398247;28;19987;-43
2023/04/15 04:25:43;;;;;;;;;;;19.80;32.30;;;;;;8398574;28;19920;-43
2023/04/15 04:29:46;;;;;;;;;;;19.90;32.20;;;;;;8398200;28;19920;-42
2023/04/15 04:33:46;;;;;;;;;;;20.00;32.30;;;;;;8398720;28;19974;-43
2023/04/15 04:37:47;;;;;;;;;;;20.10;32.20;;;;;;8398261;28;19917;-43
2023/04/15 04:41:47;;;;;;;;;;;20.10;32.10;;;;;;8397776;28;19917;-43
2023/04/15 04:45:48;;;;;;;;;;;20.20;32.10;;;;;;8398113;28;19970;-44
2023/04/15 04:49:48;;;;;;;;;;;20.20;32.20;;;;;;8398209;28;19960;-44
2023/04/15 04:53:49;;;;;;;;;;;20.30;32.20;;;;;;8397891;28;19948;-45
2023/04/15 04:57:50;;;;;;;;;;;20.30;32.10;;;;;;8397787;28;19917;-43
2023/04/15 05:01:50;;;;;;;;;;;20.30;32.20;;;;;;8335579;28;1770546;-41
2023/04/15 05:05:51;;;;;;;;;;;20.30;32.20;;;;;;8399023;28;19917;-43
2023/04/15 05:09:52;;;;;;;;;;;20.30;32.20;;;;;;8399274;28;19916;-44
2023/04/15 05:13:52;;;;;;;;;;;20.30;32.20;;;;;;8399493;28;19920;-44
2023/04/15 05:17:53;;;;;;;;;;;20.30;32.20;;;;;;8398546;28;19916;-43
2023/04/15 05:21:53;;;;;;;;;;;20.20;32.20;;;;;;8399109;28;19930;-43
2023/04/15 05:25:54;;;;;;;;;;;20.20;32.30;;;;;;8398574;28;19925;-45
2023/04/15 05:29:55;;;;;;;;;;;20.20;32.30;;;;;;8398175;28;20003;-43
2023/04/15 05:33:55;;;;;;;;;;;20.20;32.30;;;;;;8397680;28;20011;-45
2023/04/15 05:37:56;;;;;;;;;;;20.20;32.30;;;;;;8398278;28;20327;-46
2023/04/15 05:41:57;;;;;;;;;;;20.10;32.20;;;;;;8397756;28;19969;-44
2023/04/15 05:45:57;;;;;;;;;;;20.10;32.20;;;;;;8398235;28;19962;-44
2023/04/15 05:49:58;;;;;;;;;;;20.10;32.30;;;;;;8398027;28;19913;-43
2023/04/15 05:53:58;;;;;;;;;;;20.10;32.30;;;;;;8397467;28;19960;-43
2023/04/15 05:57:58;;;;;;;;;;;20.10;32.30;;;;;;8397537;28;19925;-45
2023/04/15 06:01:59;;;;;;;;;;;20.10;32.90;;;;;;8397400;28;19921;-44
2023/04/15 06:06:00;;;;;;;;;;;20.10;32.40;;;;;;8397034;28;20433;-44
2023/04/15 06:10:01;;;;;;;;;;;20.10;32.30;;;;;;8397429;28;19916;-44
2023/04/15 06:14:01;;;;;;;;;;;20.20;32.40;;;;;;8397311;28;19920;-43
2023/04/15 06:18:02;;;;;;;;;;;20.20;32.20;;;;;;8396854;28;20062;-45
2023/04/15 06:22:02;;;;;;;;;;;20.30;32.20;;;;;;8397015;28;19921;-43
2023/04/15 06:26:03;;;;;;;;;;;20.30;32.20;;;;;;8397066;28;19916;-42
2023/04/15 06:30:03;;;;;;;;;;;20.40;32.10;;;;;;8396678;28;20025;-45
2023/04/15 06:34:04;;;;;;;;;;;20.50;32.10;;;;;;8396893;28;19936;-43
2023/04/15 06:38:05;;;;;;;;;;;20.50;32.40;;;;;;8396877;28;19917;-43
2023/04/15 06:42:05;;;;;;;;;;;20.50;32.00;;;;;;8396364;28;20326;-44
2023/04/15 06:46:06;;;;;;;;;;;20.50;32.10;;;;;;8396308;28;20383;-43
2023/04/15 06:50:08;;;;;;;;;;;20.50;32.10;;;;;;8396792;28;20281;-44
2023/04/15 06:54:08;;;;;;;;;;;20.50;32.10;;;;;;8395912;28;20331;-44
2023/04/15 06:58:08;;;;;;;;;;;20.50;32.10;;;;;;8396700;28;20000;-43
2023/04/15 07:02:11;;;;;;;;;;;20.50;32.20;;;;;;8396095;28;19920;-44
2023/04/15 07:06:12;;;;;;;;;;;20.50;32.20;;;;;;8395782;28;19923;-43
2023/04/15 07:10:13;;;;;;;;;;;20.40;32.20;;;;;;8395379;28;19912;-43
2023/04/15 07:14:14;;;;;;;;;;;20.40;32.10;;;;;;8395901;28;19936;-43
2023/04/15 07:18:14;;;;;;;;;;;20.40;32.20;;;;;;8395542;28;20007;-43
2023/04/15 07:22:15;;;;;;;;;;;20.40;32.20;;;;;;8395966;28;19924;-43
2023/04/15 07:26:15;;;;;;;;;;;20.40;32.30;;;;;;8395824;28;19931;-43
2023/04/15 07:30:16;;;;;;;;;;;20.30;32.30;;;;;;8395536;28;20365;-45
2023/04/15 07:34:17;;;;;;;;;;;20.30;32.40;;;;;;8395578;28;20397;-44
2023/04/15 07:38:18;;;;;;;;;;;20.30;32.40;;;;;;8395705;28;19957;-43
2023/04/15 07:42:18;;;;;;;;;;;20.30;32.40;;;;;;8395186;28;19921;-43
2023/04/15 07:46:19;;;;;;;;;;;20.30;32.40;;;;;;8395670;28;19920;-43
2023/04/15 07:50:20;;;;;;;;;;;20.40;32.40;;;;;;8395864;28;20021;-43
2023/04/15 07:54:20;;;;;;;;;;;20.40;32.30;;;;;;8395035;28;19974;-43
2023/04/15 07:58:21;;;;;;;;;;;20.40;32.30;;;;;;8399628;28;20332;-44
2023/04/15 08:02:21;;;;;;;;;;;20.50;32.30;;;;;;8401386;28;20042;-44
2023/04/15 08:06:22;;;;;;;;;;;20.50;32.30;;;;;;8400734;28;19921;-42
2023/04/15 08:10:22;;;;;;;;;;;20.60;32.30;;;;;;8401387;28;19912;-46
2023/04/15 08:14:23;;;;;;;;;;;20.50;32.20;;;;;;8400864;28;19928;-42
2023/04/15 08:18:24;;;;;;;;;;;20.60;32.20;;;;;;8400393;28;19933;-44
2023/04/15 08:22:24;;;;;;;;;;;20.60;32.20;;;;;;8400918;28;19920;-47
2023/04/15 08:26:25;;;;;;;;;;;20.60;32.20;;;;;;8400553;28;20257;-44
2023/04/15 08:30:25;;;;;;;;;;;20.60;32.20;;;;;;8400459;28;20349;-43
2023/04/15 08:34:26;;;;;;;;;;;20.60;32.20;;;;;;8400613;28;19928;-44
2023/04/15 08:38:26;;;;;;;;;;;20.70;32.20;;;;;;8400541;28;19920;-44
2023/04/15 08:42:33;;;;;;;;;;;20.60;32.10;;;;;;8399618;28;20319;-43
2023/04/15 08:46:34;;;;;;;;;;;20.70;32.10;;;;;;8400299;28;19916;-43
2023/04/15 08:50:34;;;;;;;;;;;20.60;32.10;;;;;;8400140;28;20330;-42
2023/04/15 08:54:35;;;;;;;;;;;20.70;32.20;;;;;;8399583;28;19931;-42
2023/04/15 08:58:36;;;;;;;;;;;20.60;32.10;;;;;;8399744;28;19987;-43
2023/04/15 09:02:37;;;;;;;;;;;20.60;32.10;;;;;;8399393;28;19921;-43
2023/04/15 09:06:38;;;;;;;;;;;20.60;32.20;;;;;;8399613;28;19917;-44
2023/04/15 09:10:39;;;;;;;;;;;20.50;32.10;;;;;;8398452;28;19916;-44
2023/04/15 09:14:39;;;;;;;;;;;20.60;32.20;;;;;;8398977;28;19970;-43
2023/04/15 09:18:40;;;;;;;;;;;20.60;32.20;;;;;;8399319;28;19924;-43
2023/04/15 09:22:41;;;;;;;;;;;20.50;32.20;;;;;;8399159;28;19924;-44
2023/04/15 09:26:41;;;;;;;;;;;20.60;32.20;;;;;;8398537;28;19916;-42
2023/04/15 09:30:46;;;;;;;;;;;20.60;32.20;;;;;;8399036;28;20129;-44
2023/04/15 09:34:47;;;;;;;;;;;20.60;32.20;;;;;;8398654;28;19924;-45
2023/04/15 09:38:57;;;;;;;;;;;20.60;32.20;;;;;;8398143;28;20057;-44
2023/04/15 09:42:58;;;;;;;;;;;20.60;32.20;;;;;;8398259;28;19916;-43
2023/04/15 09:46:58;;;;;;;;;;;20.60;32.20;;;;;;8397813;28;19963;-44
2023/04/15 09:51:00;;;;;;;;;;;20.60;32.20;;;;;;8398011;28;20404;-45
2023/04/15 09:55:00;;;;;;;;;;;20.60;32.20;;;;;;8397657;28;20365;-44
2023/04/15 09:59:01;;;;;;;;;;;20.60;32.20;;;;;;8397596;28;19923;-43
2023/04/15 10:03:01;;;;;;;;;;;20.60;32.20;;;;;;8393453;28;19974;-42
2023/04/15 10:07:02;;;;;;;;;;;20.60;32.20;;;;;;8397626;28;20402;-44
2023/04/15 10:11:03;;;;;;;;;;;20.70;32.30;;;;;;8397885;28;19970;-43
2023/04/15 10:15:04;;;;;;;;;;;20.70;32.30;;;;;;8396974;28;19935;-44
2023/04/15 10:19:05;;;;;;;;;;;20.80;32.30;;;;;;8396881;28;20395;-43
2023/04/15 10:23:07;;;;;;;;;;;20.90;32.30;;;;;;8397512;28;20381;-42
2023/04/15 10:27:07;;;;;;;;;;;20.90;32.20;;;;;;8396942;28;19939;-43
2023/04/15 10:31:10;;;;;;;;;;;20.90;32.20;;;;;;8396955;28;19912;-44
2023/04/15 10:35:10;;;;;;;;;;;20.90;32.20;;;;;;8396637;28;19929;-44
2023/04/15 10:39:37;;;;;;;;;;;21.00;32.20;;;;;;8396793;28;20334;-43
2023/04/15 10:43:38;;;;;;;;;;;21.00;32.20;;;;;;8396851;28;19917;-44
2023/04/15 10:47:39;;;;;;;;;;;21.00;32.20;;;;;;8396075;28;19923;-44
2023/04/15 10:51:40;;;;;;;;;;;21.00;32.20;;;;;;8397161;28;19939;-44
2023/04/15 10:55:41;;;;;;;;;;;21.10;32.20;;;;;;8396599;28;20359;-44
2023/04/15 11:00:06;;;;;;;;;;;21.00;32.10;;;;;;8396242;28;20065;-45
2023/04/15 11:04:06;;;;;;;;;;;21.00;32.20;;;;;;8396156;28;19928;-44
2023/04/15 11:08:08;;;;;;;;;;;21.00;32.20;;;;;;8396300;28;20281;-44
2023/04/15 11:12:09;;;;;;;;;;;21.00;32.20;;;;;;8395924;28;19916;-46
2023/04/15 11:16:09;;;;;;;;;;;21.10;32.30;;;;;;8396324;28;19952;-45
2023/04/15 11:20:13;;;;;;;;;;;21.00;32.70;;;;;;8396033;28;19917;-45
2023/04/15 11:24:26;;;;;;;;;;;21.00;32.20;;;;;;8395505;28;20600;-45
2023/04/15 11:28:27;;;;;;;;;;;21.00;32.20;;;;;;8395905;28;19919;-44
2023/04/15 11:32:27;;;;;;;;;;;21.00;32.20;;;;;;8399029;28;19960;-45
2023/04/15 11:36:28;;;;;;;;;;;21.00;32.20;;;;;;8401885;28;19924;-45
2023/04/15 11:40:30;;;;;;;;;;;21.00;32.70;;;;;;8402347;28;20012;-44
2023/04/15 11:44:30;;;;;;;;;;;21.00;32.20;;;;;;8401917;28;19913;-44
2023/04/15 11:48:32;;;;;;;;;;;21.00;32.20;;;;;;8401547;28;19923;-44
2023/04/15 11:52:32;;;;;;;;;;;21.00;32.30;;;;;;8401319;28;19960;-46
2023/04/15 11:56:33;;;;;;;;;;;21.00;32.30;;;;;;8401643;28;19923;-44
2023/04/15 12:00:34;;;;;;;;;;;21.00;32.30;;;;;;8400869;28;19916;-43
2023/04/15 12:04:34;;;;;;;;;;;21.10;32.30;;;;;;8401470;28;20316;-44
2023/04/15 12:08:47;;;;;;;;;;;21.10;32.30;;;;;;8400795;28;20023;-45
2023/04/15 12:12:48;;;;;;;;;;;21.10;32.30;;;;;;8401317;28;19928;-44
2023/04/15 12:17:01;;;;;;;;;;;21.10;32.30;;;;;;8401274;28;19938;-45
2023/04/15 12:21:08;;;;;;;;;;;21.10;32.40;;;;;;8400769;28;20285;-45
2023/04/15 12:25:09;;;;;;;;;;;21.10;32.30;;;;;;8400738;28;19917;-46
2023/04/15 12:29:10;;;;;;;;;;;21.10;32.30;;;;;;8400728;28;19917;-45
2023/04/15 12:33:11;;;;;;;;;;;21.10;32.30;;;;;;8400075;28;19924;-44
2023/04/15 12:37:14;;;;;;;;;;;21.20;32.40;;;;;;8400803;28;19920;-44
2023/04/15 12:41:15;;;;;;;;;;;21.10;32.40;;;;;;8400808;28;19920;-43
2023/04/15 12:45:16;;;;;;;;;;;21.20;32.40;;;;;;8399453;28;19991;-44
2023/04/15 12:49:19;;;;;;;;;;;21.20;32.40;;;;;;8400069;28;19913;-44
2023/04/15 12:53:20;;;;;;;;;;;21.20;32.40;;;;;;8400229;28;20373;-42
2023/04/15 12:57:20;;;;;;;;;;;21.20;32.40;;;;;;8399508;28;19920;-44
2023/04/15 13:01:21;;;;;;;;;;;21.20;32.40;;;;;;8399884;28;19956;-44
2023/04/15 13:05:21;;;;;;;;;;;21.20;32.40;;;;;;8394322;28;20408;-44
2023/04/15 13:09:22;;;;;;;;;;;21.20;32.30;;;;;;8378816;28;19920;-42
2023/04/15 13:13:22;;;;;;;;;;;21.20;32.30;;;;;;8399230;28;19924;-44
2023/04/15 13:17:22;;;;;;;;;;;21.20;32.30;;;;;;8399363;28;20528;-44
2023/04/15 13:21:23;;;;;;;;;;;21.20;32.40;;;;;;8388763;28;19928;-43
2023/04/15 13:25:24;;;;;;;;;;;21.20;32.40;;;;;;8391652;28;20362;-45
2023/04/15 13:29:25;;;;;;;;;;;21.10;32.40;;;;;;8397166;28;20324;-41
2023/04/15 13:33:26;;;;;;;;;;;21.10;33.90;;;;;;8397542;28;20061;-42
2023/04/15 13:37:26;;;;;;;;;;;21.10;33.60;;;;;;8397380;28;19971;-41
2023/04/15 13:41:27;;;;;;;;;;;21.10;34.20;;;;;;8395833;28;19917;-41
2023/04/15 13:45:27;;;;;;;;;;;21.00;33.30;;;;;;8394011;28;19923;-41
2023/04/15 13:49:28;;;;;;;;;;;20.80;33.50;;;;;;8394072;28;19932;-41
2023/04/15 13:53:29;;;;;;;;;;;20.70;33.50;;;;;;8394692;28;19928;-43
2023/04/15 13:57:30;;;;;;;;;;;20.50;33.80;;;;;;8391340;28;19925;-42
2023/04/15 14:01:30;;;;;;;;;;;20.50;34.00;;;;;;8394103;28;19968;-41
2023/04/15 14:05:31;;;;;;;;;;;20.50;34.10;;;;;;8391804;28;19924;-42
2023/04/15 14:09:31;;;;;;;;;;;20.40;34.10;;;;;;8393629;28;19916;-42
2023/04/15 14:13:32;;;;;;;;;;;20.40;33.80;;;;;;8394610;28;19924;-42
2023/04/15 14:17:32;;;;;;;;;;;20.20;34.10;;;;;;8395121;28;20281;-44
2023/04/15 14:21:33;;;;;;;;;;;20.20;34.10;;;;;;8393591;28;19917;-43
2023/04/15 14:25:33;;;;;;;;;;;20.10;34.20;;;;;;8395161;28;19969;-42
2023/04/15 14:29:33;;;;;;;;;;;20.10;34.30;;;;;;8394398;28;19987;-43
2023/04/15 14:33:34;;;;;;;;;;;20.10;34.70;;;;;;8373127;28;20132;-43
2023/04/15 14:37:34;;;;;;;;;;;20.00;35.20;;;;;;8396019;28;19923;-44
2023/04/15 14:41:35;;;;;;;;;;;20.00;35.30;;;;;;8395356;28;19920;-45
2023/04/15 14:45:36;;;;;;;;;;;19.90;36.40;;;;;;8395411;28;19917;-43
2023/04/15 14:49:37;;;;;;;;;;;19.80;37.00;;;;;;8395810;28;19970;-43
2023/04/15 14:53:37;;;;;;;;;;;19.80;36.20;;;;;;8375417;28;19925;-44
2023/04/15 14:57:38;;;;;;;;;;;19.70;35.90;;;;;;8395340;28;19913;-44
2023/04/15 15:01:39;;;;;;;;;;;19.60;35.90;;;;;;8395119;28;19920;-43
2023/04/15 15:05:43;;;;;;;;;;;19.60;36.20;;;;;;8396444;28;19927;-43
2023/04/15 15:09:44;;;;;;;;;;;19.50;36.60;;;;;;8401800;28;19924;-49
2023/04/15 15:13:44;;;;;;;;;;;19.50;37.70;;;;;;8380325;28;19924;-45
2023/04/15 15:17:45;;;;;;;;;;;19.50;38.10;;;;;;8395065;28;19935;-45
2023/04/15 15:21:45;;;;;;;;;;;19.50;38.20;;;;;;8400842;28;19927;-45
2023/04/15 15:25:46;;;;;;;;;;;19.40;38.20;;;;;;8392250;28;19926;-44
2023/04/15 15:29:47;;;;;;;;;;;19.40;37.30;;;;;;8398076;28;19932;-43
2023/04/15 15:33:48;;;;;;;;;;;19.30;37.80;;;;;;8401203;28;19921;-45
2023/04/15 15:37:48;;;;;;;;;;;19.20;38.60;;;;;;8399819;28;19920;-43
2023/04/15 15:41:49;;;;;;;;;;;19.10;39.10;;;;;;8400032;28;20379;-43
2023/04/15 15:45:51;;;;;;;;;;;19.00;39.20;;;;;;8400104;28;19916;-42
2023/04/15 15:49:53;;;;;;;;;;;19.00;38.40;;;;;;8399815;28;20030;-44
2023/04/15 15:53:53;;;;;;;;;;;19.00;38.50;;;;;;8399610;28;19920;-43
2023/04/15 15:57:54;;;;;;;;;;;19.10;38.60;;;;;;8390934;28;19928;-42
2023/04/15 16:01:54;;;;;;;;;;;19.10;38.50;;;;;;8382111;28;19928;-42
2023/04/15 16:05:55;;;;;;;;;;;19.20;37.90;;;;;;8389898;28;19927;-46
2023/04/15 16:09:55;;;;;;;;;;;19.20;38.40;;;;;;8385900;28;19929;-46
2023/04/15 16:13:55;;;;;;;;;;;19.50;38.40;;;;;;8399642;28;19927;-44
2023/04/15 16:17:56;;;;;;;;;;;19.80;38.20;;;;;;8398112;28;20285;-46
2023/04/15 16:21:56;;;;;;;;;;;20.20;38.30;;;;;;8399096;28;19916;-46
2023/04/15 16:25:57;;;;;;;;;;;20.50;37.30;;;;;;8399311;28;19917;-44
2023/04/15 16:29:57;;;;;;;;;;;20.80;36.60;;;;;;8398101;28;19920;-45
2023/04/15 16:33:58;;;;;;;;;;;21.00;36.70;;;;;;8399264;28;19978;-46
2023/04/15 16:37:59;;;;;;;;;;;20.80;35.40;;;;;;8398986;28;19977;-43
2023/04/15 16:42:01;;;;;;;;;;;20.50;35.50;;;;;;8390165;28;20710;-42
2023/04/15 16:46:01;;;;;;;;;;;20.20;35.80;;;;;;8399637;28;19926;-43
2023/04/15 16:50:01;;;;;;;;;;;19.90;36.20;;;;;;8386439;28;20400;-44
2023/04/15 16:54:02;;;;;;;;;;;19.80;36.60;;;;;;8372936;28;19935;-43
2023/04/15 16:58:02;;;;;;;;;;;19.60;36.90;;;;;;8398771;28;20402;-44
2023/04/15 17:02:03;;;;;;;;;;;19.50;37.10;;;;;;8398653;28;19960;-44
2023/04/15 17:06:03;;;;;;;;;;;19.40;37.30;;;;;;8398153;28;19924;-45
2023/04/15 17:10:04;;;;;;;;;;;19.30;37.40;;;;;;8398938;28;20023;-45
2023/04/15 17:14:07;;;;;;;;;;;19.30;37.70;;;;;;8398232;28;19921;-42
2023/04/15 17:18:09;;;;;;;;;;;19.20;37.70;;;;;;8397733;28;19924;-42
2023/04/15 17:22:09;;;;;;;;;;;19.20;37.70;;;;;;8397777;28;19925;-42
2023/04/15 17:26:10;;;;;;;;;;;19.20;37.60;;;;;;8397779;28;20435;-42
2023/04/15 17:30:10;;;;;;;;;;;19.20;37.40;;;;;;8394212;28;19924;-43
2023/04/15 17:34:11;;;;;;;;;;;19.30;38.40;;;;;;8395183;28;19928;-43
2023/04/15 17:38:11;;;;;;;;;;;19.70;37.80;;;;;;8394247;28;19955;-43
2023/04/15 17:42:12;;;;;;;;;;;20.00;37.10;;;;;;8394110;28;20397;-43
2023/04/15 17:46:13;;;;;;;;;;;20.30;36.60;;;;;;8394637;28;19923;-44
2023/04/15 17:50:13;;;;;;;;;;;20.50;36.20;;;;;;8396869;28;19916;-44
2023/04/15 17:54:13;;;;;;;;;;;20.70;35.90;;;;;;8396512;28;20010;-44
2023/04/15 17:58:14;;;;;;;;;;;20.80;35.70;;;;;;8396726;28;20387;-45
2023/04/15 18:02:14;;;;;;;;;;;20.90;35.50;;;;;;8396604;28;19920;-44
2023/04/15 18:06:15;;;;;;;;;;;20.90;35.40;;;;;;8396058;28;19927;-44
2023/04/15 18:10:16;;;;;;;;;;;21.00;35.30;;;;;;8396175;28;20288;-44
2023/04/15 18:14:16;;;;;;;;;;;21.10;35.20;;;;;;8396287;28;19931;-43
2023/04/15 18:18:17;;;;;;;;;;;21.10;35.10;;;;;;8395630;28;19916;-44
2023/04/15 18:22:17;;;;;;;;;;;21.10;35.00;;;;;;8395883;28;19959;-43
2023/04/15 18:26:17;;;;;;;;;;;21.10;34.90;;;;;;8396036;28;20297;-43
2023/04/15 18:30:18;;;;;;;;;;;21.10;34.90;;;;;;8395374;28;19921;-43
2023/04/15 18:34:18;;;;;;;;;;;21.10;34.80;;;;;;8396024;28;19920;-44
2023/04/15 18:38:19;;;;;;;;;;;21.10;34.70;;;;;;8395771;28;20025;-43
2023/04/15 18:42:20;;;;;;;;;;;21.10;34.70;;;;;;8394772;28;19916;-42
2023/04/15 18:46:21;;;;;;;;;;;21.10;34.70;;;;;;8395544;28;19954;-43
2023/04/15 18:50:21;;;;;;;;;;;21.10;34.70;;;;;;8395676;28;20345;-44
2023/04/15 18:54:21;;;;;;;;;;;21.10;34.70;;;;;;8395019;28;20305;-44
2023/04/15 18:58:22;;;;;;;;;;;21.00;34.70;;;;;;8395193;28;20366;-42
2023/04/15 19:02:22;;;;;;;;;;;21.00;34.70;;;;;;8395244;28;19921;-44
2023/04/15 19:06:23;;;;;;;;;;;21.00;34.70;;;;;;8394648;28;20320;-44
2023/04/15 19:10:23;;;;;;;;;;;21.00;34.70;;;;;;8366286;28;20278;-43
2023/04/15 19:14:24;;;;;;;;;;;21.00;34.70;;;;;;8395095;28;19951;-44
2023/04/15 19:18:25;;;;;;;;;;;21.00;34.60;;;;;;8394581;28;19923;-43
2023/04/15 19:22:25;;;;;;;;;;;21.00;34.60;;;;;;8395039;28;19974;-44
2023/04/15 19:26:26;;;;;;;;;;;21.00;34.60;;;;;;8394886;28;19920;-45
2023/04/15 19:30:27;;;;;;;;;;;21.00;34.60;;;;;;8393933;28;20293;-44
2023/04/15 19:34:27;;;;;;;;;;;21.00;34.60;;;;;;8395224;28;19920;-44
2023/04/15 19:38:29;;;;;;;;;;;21.00;34.60;;;;;;8394641;28;19970;-44
2023/04/15 19:42:30;;;;;;;;;;;21.00;34.60;;;;;;8394121;28;19967;-44
2023/04/15 19:46:30;;;;;;;;;;;21.00;34.50;;;;;;8394514;28;19917;-45
2023/04/15 19:50:31;;;;;;;;;;;21.10;34.60;;;;;;8394601;28;19926;-44
2023/04/15 19:54:31;;;;;;;;;;;21.10;34.60;;;;;;8398501;28;19921;-45
2023/04/15 19:58:32;;;;;;;;;;;21.10;34.50;;;;;;8400546;28;19916;-44
2023/04/15 20:02:32;;;;;;;;;;;21.10;34.50;;;;;;8400633;28;19920;-44
2023/04/15 20:06:32;;;;;;;;;;;21.10;34.50;;;;;;8399914;28;19916;-44
2023/04/15 20:10:34;;;;;;;;;;;21.10;34.60;;;;;;8400705;28;19966;-44
2023/04/15 20:14:35;;;;;;;;;;;21.10;34.50;;;;;;8399504;28;20348;-45
2023/04/15 20:18:35;;;;;;;;;;;21.00;34.50;;;;;;8399890;28;19920;-45
2023/04/15 20:22:36;;;;;;;;;;;21.00;34.50;;;;;;8399737;28;19962;-45
2023/04/15 20:26:36;;;;;;;;;;;21.00;34.50;;;;;;8399445;28;19923;-43
2023/04/15 20:30:38;;;;;;;;;;;21.00;34.50;;;;;;8399870;28;19913;-43
2023/04/15 20:34:41;;;;;;;;;;;21.00;34.60;;;;;;8399340;28;20336;-44
2023/04/15 20:38:42;;;;;;;;;;;21.00;34.60;;;;;;8399148;28;19921;-44
2023/04/15 20:42:42;;;;;;;;;;;21.00;34.60;;;;;;8399181;28;19925;-44
2023/04/15 20:46:43;;;;;;;;;;;21.00;34.50;;;;;;8399132;28;19924;-44
2023/04/15 20:50:43;;;;;;;;;;;20.90;34.40;;;;;;8398810;28;19913;-44
2023/04/15 20:54:43;;;;;;;;;;;20.90;34.40;;;;;;8399056;28;19931;-43
2023/04/15 20:58:44;;;;;;;;;;;20.90;34.40;;;;;;8398735;28;20034;-43
2023/04/15 21:02:44;;;;;;;;;;;20.90;34.40;;;;;;8397868;28;20280;-43
2023/04/15 21:06:46;;;;;;;;;;;20.80;34.40;;;;;;8398627;28;19917;-43
2023/04/15 21:10:46;;;;;;;;;;;20.80;34.40;;;;;;8398575;28;19913;-43
2023/04/15 21:14:47;;;;;;;;;;;20.80;34.40;;;;;;8397623;28;19924;-43
2023/04/15 21:18:47;;;;;;;;;;;20.80;34.40;;;;;;8398246;28;19967;-44
2023/04/15 21:22:48;;;;;;;;;;;20.80;34.40;;;;;;8398129;28;20358;-43
2023/04/15 21:26:48;;;;;;;;;;;20.80;34.40;;;;;;8397557;28;19942;-43
2023/04/15 21:30:49;;;;;;;;;;;20.80;34.40;;;;;;8398221;28;20058;-43
2023/04/15 21:34:50;;;;;;;;;;;20.70;34.30;;;;;;8397412;28;19925;-44
2023/04/15 21:38:50;;;;;;;;;;;20.70;34.30;;;;;;8396899;28;19917;-43
2023/04/15 21:42:51;;;;;;;;;;;20.70;34.30;;;;;;8397211;28;19916;-44
2023/04/15 21:46:51;;;;;;;;;;;20.70;34.40;;;;;;8397300;28;19912;-43
2023/04/15 21:50:56;;;;;;;;;;;20.60;34.40;;;;;;8396780;28;19916;-44
2023/04/15 21:54:56;;;;;;;;;;;20.60;34.40;;;;;;8396928;28;19950;-43
2023/04/15 21:58:57;;;;;;;;;;;20.50;34.50;;;;;;8396782;28;20482;-43
2023/04/15 22:02:58;;;;;;;;;;;20.50;34.50;;;;;;8395567;28;19927;-43
2023/04/15 22:07:01;;;;;;;;;;;20.50;34.50;;;;;;8394542;28;20049;-44
2023/04/15 22:11:01;;;;;;;;;;;20.50;34.60;;;;;;8362351;28;20293;-44
2023/04/15 22:15:02;;;;;;;;;;;20.50;34.60;;;;;;8392646;28;19936;-44
2023/04/15 22:19:02;;;;;;;;;;;20.50;34.60;;;;;;8396290;28;19985;-44
2023/04/15 22:23:06;;;;;;;;;;;20.50;34.50;;;;;;8396428;28;19916;-43
2023/04/15 22:27:07;;;;;;;;;;;20.40;34.50;;;;;;8395886;28;19956;-44
2023/04/15 22:31:07;;;;;;;;;;;20.40;34.60;;;;;;8396039;28;19912;-44
2023/04/15 22:35:08;;;;;;;;;;;20.40;34.60;;;;;;8395865;28;19929;-47
2023/04/15 22:39:08;;;;;;;;;;;20.30;34.50;;;;;;8395635;28;20629;-46
2023/04/15 22:43:09;;;;;;;;;;;20.30;34.60;;;;;;8396103;28;20003;-43
2023/04/15 22:47:09;;;;;;;;;;;20.30;34.60;;;;;;8395557;28;19916;-43
2023/04/15 22:51:09;;;;;;;;;;;20.30;34.60;;;;;;8395311;28;19919;-43
2023/04/15 22:55:10;;;;;;;;;;;20.30;34.60;;;;;;8394971;28;20383;-46
2023/04/15 22:59:10;;;;;;;;;;;20.20;34.60;;;;;;8395846;28;20223;-45
2023/04/15 23:03:11;;;;;;;;;;;20.20;34.60;;;;;;8394979;28;19921;-45
2023/04/15 23:07:11;;;;;;;;;;;20.20;34.60;;;;;;8395219;28;19920;-43
2023/04/15 23:11:12;;;;;;;;;;;20.20;34.70;;;;;;8395921;28;19962;-43
2023/04/15 23:15:12;;;;;;;;;;;20.20;34.70;;;;;;8395044;28;19924;-44
2023/04/15 23:19:13;;;;;;;;;;;20.20;34.60;;;;;;8395107;28;19931;-44